createdAt,value
2022-11-02T00:01:02.649Z,10.43
2022-11-02T00:03:30.794Z,9.52
2022-11-02T00:05:58.339Z,9.20
2022-11-02T00:08:26.563Z,8.65
2022-11-02T00:10:56.101Z,7.15
2022-11-02T00:13:23.505Z,7.78
2022-11-02T00:15:51.694Z,7.18
2022-11-02T00:18:19.160Z,7.95
2022-11-02T00:20:46.585Z,8.80
2022-11-02T00:23:15.724Z,7.13
2022-11-02T00:25:45.571Z,6.38
2022-11-02T00:28:13.589Z,7.47
2022-11-02T00:30:42.207Z,6.90
2022-11-02T00:33:10.405Z,9.93
2022-11-02T00:35:38.459Z,9.00
2022-11-02T00:38:07.034Z,12.05
2022-11-02T00:40:37.628Z,11.90
2022-11-02T00:43:06.572Z,10.50
2022-11-02T00:45:34.933Z,9.68
2022-11-02T00:48:02.918Z,9.90
2022-11-02T00:50:30.760Z,13.07
2022-11-02T00:52:58.251Z,10.88
2022-11-02T00:55:25.736Z,10.40
2022-11-02T00:57:54.185Z,9.75
2022-11-02T01:00:21.751Z,11.07
2022-11-02T01:02:49.511Z,8.13
2022-11-02T01:05:17.184Z,8.43
2022-11-02T01:07:45.041Z,7.55
2022-11-02T01:10:12.514Z,8.38
2022-11-02T01:12:40.706Z,8.23
2022-11-02T01:15:08.983Z,9.43
2022-11-02T01:17:36.714Z,9.07
2022-11-02T01:20:04.867Z,8.38
2022-11-02T01:22:32.571Z,8.80
2022-11-02T01:25:00.047Z,7.82
2022-11-02T01:27:27.476Z,7.22
2022-11-02T01:29:54.894Z,8.52
2022-11-02T01:32:22.384Z,7.28
2022-11-02T01:34:51.058Z,8.18
2022-11-02T01:37:18.529Z,7.28
2022-11-02T01:39:45.983Z,8.38
2022-11-02T01:42:24.612Z,10.07
2022-11-02T01:44:52.316Z,7.78
2022-11-02T01:47:25.609Z,9.15
2022-11-02T01:49:56.901Z,9.10
2022-11-02T01:52:31.946Z,9.02
2022-11-02T01:55:05.317Z,8.73
2022-11-02T01:57:34.067Z,9.05
2022-11-02T02:00:07.368Z,8.25
2022-11-02T02:02:36.657Z,8.48
2022-11-02T02:05:06.045Z,7.50
2022-11-02T02:07:35.956Z,8.05
2022-11-02T02:10:03.460Z,6.63
2022-11-02T02:12:31.579Z,7.57
2022-11-02T02:15:00.006Z,9.27
2022-11-02T02:17:45.941Z,7.43
2022-11-02T02:20:21.130Z,6.28
2022-11-02T02:22:48.628Z,8.57
2022-11-02T02:25:34.576Z,8.38
2022-11-02T02:28:05.635Z,8.20
2022-11-02T02:30:37.675Z,8.82
2022-11-02T02:33:27.706Z,8.98
2022-11-02T02:35:59.523Z,7.47
2022-11-02T02:38:26.890Z,6.93
2022-11-02T02:41:15.370Z,7.57
2022-11-02T02:43:45.091Z,8.32
2022-11-02T02:46:12.636Z,8.02
2022-11-02T02:48:42.090Z,7.00
2022-11-02T02:51:11.805Z,8.00
2022-11-02T02:53:50.311Z,8.05
2022-11-02T02:56:20.583Z,6.95
2022-11-02T02:59:03.169Z,7.28
2022-11-02T03:01:30.917Z,6.18
2022-11-02T03:03:58.649Z,5.72
2022-11-02T03:06:29.021Z,7.63
2022-11-02T03:09:06.672Z,7.45
2022-11-02T03:11:35.466Z,5.53
2022-11-02T03:14:21.455Z,5.90
2022-11-02T03:19:39.285Z,6.72
2022-11-02T03:22:27.030Z,7.10
2022-11-02T03:25:09.019Z,6.55
2022-11-02T03:27:39.613Z,7.63
2022-11-02T03:30:08.415Z,7.03
2022-11-02T03:32:38.682Z,6.15
2022-11-02T03:35:12.766Z,7.13
2022-11-02T03:37:42.924Z,8.40
2022-11-02T03:40:12.593Z,6.20
2022-11-02T03:42:40.653Z,7.18
2022-11-02T03:45:16.694Z,7.00
2022-11-02T03:47:46.471Z,5.93
2022-11-02T03:50:16.014Z,6.28
2022-11-02T03:52:45.924Z,5.68
2022-11-02T03:55:21.305Z,7.53
2022-11-02T03:57:51.111Z,7.00
2022-11-02T04:00:30.252Z,6.25
2022-11-02T04:02:59.622Z,7.30
2022-11-02T04:05:45.192Z,7.10
2022-11-02T04:08:23.781Z,7.88
2022-11-02T04:11:10.650Z,6.05
2022-11-02T04:13:56.852Z,8.38
2022-11-02T04:16:27.671Z,6.28
2022-11-02T04:19:13.935Z,7.20
2022-11-02T04:21:41.838Z,7.15
2022-11-02T04:24:27.913Z,7.50
2022-11-02T04:26:55.470Z,6.85
2022-11-02T04:29:23.007Z,7.25
2022-11-02T04:31:50.577Z,7.30
2022-11-02T04:34:18.142Z,7.03
2022-11-02T04:36:45.705Z,5.45
2022-11-02T04:39:14.428Z,5.15
2022-11-02T04:41:44.989Z,7.30
2022-11-02T04:44:15.969Z,6.47
2022-11-02T04:46:44.242Z,6.35
2022-11-02T04:49:12.393Z,6.75
2022-11-02T04:51:47.251Z,7.05
2022-11-02T04:54:17.256Z,7.53
2022-11-02T04:56:45.492Z,8.38
2022-11-02T04:59:12.994Z,6.80
2022-11-02T05:01:40.754Z,6.88
2022-11-02T05:04:08.353Z,5.85
2022-11-02T05:06:35.856Z,6.40
2022-11-02T05:09:03.508Z,6.97
2022-11-02T05:11:31.361Z,7.07
2022-11-02T05:13:59.215Z,6.63
2022-11-02T05:16:26.815Z,6.97
2022-11-02T05:18:54.358Z,7.80
2022-11-02T05:21:21.833Z,8.93
2022-11-02T05:23:49.429Z,8.30
2022-11-02T05:26:17.090Z,8.35
2022-11-02T05:28:44.680Z,7.63
2022-11-02T05:31:12.303Z,7.25
2022-11-02T05:33:39.814Z,7.93
2022-11-02T05:36:07.418Z,6.75
2022-11-02T05:38:35.084Z,8.32
2022-11-02T05:41:02.720Z,9.00
2022-11-02T05:43:30.377Z,8.35
2022-11-02T05:45:59.414Z,8.32
2022-11-02T05:48:27.450Z,7.25
2022-11-02T05:50:58.830Z,7.57
2022-11-02T05:53:27.492Z,8.48
2022-11-02T05:55:58.834Z,7.82
2022-11-02T05:58:26.532Z,6.90
2022-11-02T06:00:54.343Z,6.63
2022-11-02T06:03:23.532Z,6.25
2022-11-02T06:05:56.493Z,7.38
2022-11-02T06:08:23.992Z,5.85
2022-11-02T06:10:51.501Z,3.80
2022-11-02T06:13:19.067Z,5.72
2022-11-02T06:15:46.626Z,5.95
2022-11-02T06:18:14.236Z,5.03
2022-11-02T06:20:41.918Z,5.38
2022-11-02T06:23:09.606Z,5.10
2022-11-02T06:25:37.193Z,6.13
2022-11-02T06:28:04.772Z,5.45
2022-11-02T06:30:32.368Z,5.15
2022-11-02T06:33:04.387Z,5.22
2022-11-02T06:35:34.413Z,5.60
2022-11-02T06:38:01.989Z,4.95
2022-11-02T06:40:29.941Z,5.22
2022-11-02T06:43:15.411Z,6.43
2022-11-02T06:45:44.424Z,5.65
2022-11-02T06:48:11.997Z,5.55
2022-11-02T06:50:39.781Z,6.65
2022-11-02T06:53:07.559Z,4.93
2022-11-02T06:55:35.992Z,5.30
2022-11-02T06:58:03.491Z,7.45
2022-11-02T07:00:31.126Z,6.32
2022-11-02T07:03:02.661Z,6.57
2022-11-02T07:05:31.024Z,7.03
2022-11-02T07:07:58.981Z,7.95
2022-11-02T07:10:27.032Z,7.30
2022-11-02T07:12:55.694Z,9.57
2022-11-02T07:15:23.882Z,7.40
2022-11-02T07:17:52.264Z,7.63
2022-11-02T07:20:20.199Z,7.22
2022-11-02T07:22:54.764Z,7.43
2022-11-02T07:25:22.441Z,7.28
2022-11-02T07:27:50.015Z,7.18
2022-11-02T07:30:20.049Z,5.68
2022-11-02T07:32:47.985Z,6.25
2022-11-02T07:35:16.379Z,6.65
2022-11-02T07:37:44.161Z,7.22
2022-11-02T07:40:12.966Z,6.72
2022-11-02T07:42:49.824Z,6.60
2022-11-02T07:45:17.402Z,5.72
2022-11-02T07:47:45.781Z,7.35
2022-11-02T07:50:14.481Z,7.50
2022-11-02T07:52:46.309Z,6.30
2022-11-02T07:55:14.438Z,6.10
2022-11-02T07:57:42.111Z,5.68
2022-11-02T08:00:10.725Z,4.78
2022-11-02T08:02:38.657Z,5.55
2022-11-02T08:05:06.570Z,5.88
2022-11-02T08:07:34.164Z,6.10
2022-11-02T08:10:03.397Z,5.38
2022-11-02T08:12:55.433Z,5.20
2022-11-02T08:18:04.623Z,5.57
2022-11-02T08:20:33.023Z,5.45
2022-11-02T08:23:00.702Z,5.15
2022-11-02T08:25:29.140Z,5.13
2022-11-02T08:28:00.771Z,5.63
2022-11-02T08:30:29.516Z,6.10
2022-11-02T08:32:57.482Z,4.68
2022-11-02T08:40:45.832Z,4.10
2022-11-02T08:43:14.471Z,5.13
2022-11-02T08:48:33.298Z,4.70
2022-11-02T08:51:01.002Z,5.07
2022-11-02T08:53:28.513Z,4.22
2022-11-02T08:55:58.689Z,4.30
2022-11-02T08:58:26.266Z,5.60
2022-11-02T09:00:54.813Z,4.00
2022-11-02T09:03:27.226Z,4.82
2022-11-02T09:05:59.878Z,4.72
2022-11-02T09:08:28.720Z,6.15
2022-11-02T09:10:58.812Z,4.82
2022-11-02T09:13:26.515Z,6.07
2022-11-02T09:15:55.079Z,5.63
2022-11-02T09:18:22.668Z,5.85
2022-11-02T09:20:50.542Z,4.90
2022-11-02T09:23:18.636Z,4.78
2022-11-02T09:25:46.092Z,5.72
2022-11-02T09:28:14.698Z,5.90
2022-11-02T09:30:42.881Z,5.43
2022-11-02T09:33:10.857Z,5.47
2022-11-02T09:35:39.607Z,5.55
2022-11-02T09:41:09.121Z,5.28
2022-11-02T09:43:55.715Z,5.90
2022-11-02T09:46:26.767Z,4.88
2022-11-02T09:48:56.802Z,4.63
2022-11-02T09:51:27.641Z,5.72
2022-11-02T09:54:01.312Z,6.50
2022-11-02T09:56:31.305Z,6.28
2022-11-02T10:01:59.043Z,6.18
2022-11-02T10:04:26.757Z,5.18
2022-11-02T10:07:14.449Z,4.95
2022-11-02T10:10:02.146Z,5.40
2022-11-02T10:12:59.133Z,5.72
2022-11-02T10:15:29.087Z,4.53
2022-11-02T10:17:58.763Z,5.82
2022-11-02T10:20:32.501Z,4.43
2022-11-02T10:23:04.312Z,4.20
2022-11-02T10:25:32.154Z,4.90
2022-11-02T10:28:05.027Z,5.32
2022-11-02T10:30:33.414Z,5.30
2022-11-02T10:33:01.183Z,5.13
2022-11-02T10:35:41.067Z,4.90
2022-11-02T10:38:21.588Z,4.13
2022-11-02T10:41:11.893Z,4.70
2022-11-02T10:43:39.447Z,6.10
2022-11-02T10:46:06.936Z,5.53
2022-11-02T10:48:52.852Z,6.32
2022-11-02T10:51:22.631Z,4.95
2022-11-02T10:53:51.640Z,5.80
2022-11-02T10:56:21.471Z,6.70
2022-11-02T10:59:24.935Z,6.15
2022-11-02T11:01:52.686Z,5.78
2022-11-02T11:04:28.020Z,6.63
2022-11-02T11:06:57.015Z,6.07
2022-11-02T11:09:26.975Z,5.18
2022-11-02T11:11:57.801Z,6.63
2022-11-02T11:20:09.119Z,4.75
2022-11-02T11:22:37.927Z,5.00
2022-11-02T11:25:28.161Z,5.18
2022-11-02T11:27:59.726Z,5.68
2022-11-02T11:30:53.921Z,5.80
2022-11-02T11:38:49.062Z,6.60
2022-11-02T11:49:07.509Z,5.65
2022-11-02T11:54:30.601Z,6.00
2022-11-02T11:57:20.407Z,6.37
2022-11-02T12:16:08.160Z,7.32
2022-11-02T12:18:54.741Z,8.32
2022-11-02T12:21:38.029Z,6.00
2022-11-02T12:24:22.206Z,5.95
2022-11-02T12:26:49.761Z,6.50
2022-11-02T12:29:36.066Z,5.53
2022-11-02T12:32:14.485Z,6.15
2022-11-02T12:42:57.089Z,6.47
2022-11-02T13:13:27.493Z,5.88
2022-11-02T13:24:19.040Z,6.35
2022-11-02T13:26:53.145Z,6.70
2022-11-02T13:29:46.519Z,5.82
2022-11-02T14:01:53.465Z,7.38
2022-11-02T14:07:20.566Z,9.20
2022-11-02T14:15:15.926Z,9.98
2022-11-02T16:16:47.284Z,4.88
2022-11-02T16:39:59.854Z,5.13
2022-11-02T19:47:36.534Z,3.50
2022-11-02T19:55:09.958Z,4.10
2022-11-02T19:57:38.949Z,4.22
2022-11-02T20:00:09.732Z,4.50
2022-11-02T20:02:38.014Z,4.25
2022-11-02T20:05:36.750Z,3.45
2022-11-02T20:08:21.159Z,3.72
2022-11-02T20:11:15.499Z,4.20
2022-11-02T20:13:43.908Z,2.33
2022-11-02T20:16:36.340Z,3.10
2022-11-02T20:19:05.727Z,3.35
2022-11-02T20:24:09.996Z,3.75
2022-11-02T20:26:38.431Z,3.30
2022-11-02T20:31:54.942Z,3.70
2022-11-02T20:42:21.027Z,5.13
2022-11-02T20:44:50.140Z,4.85
2022-11-02T20:47:17.804Z,4.22
2022-11-02T20:49:50.639Z,4.93
2022-11-02T20:52:19.509Z,3.88
2022-11-02T20:54:47.390Z,4.50
2022-11-02T20:57:15.047Z,6.40
2022-11-02T20:59:42.708Z,5.60
2022-11-02T21:02:11.736Z,5.13
2022-11-02T21:04:39.352Z,5.20
2022-11-02T21:07:08.118Z,5.70
2022-11-02T21:09:36.388Z,4.68
2022-11-02T21:12:28.458Z,5.03
2022-11-02T21:14:56.104Z,4.30
2022-11-02T21:17:23.639Z,4.47
2022-11-02T21:19:58.138Z,5.28
2022-11-02T21:22:31.776Z,5.68
2022-11-02T21:25:00.594Z,5.22
2022-11-02T21:27:28.139Z,6.57
2022-11-02T21:29:55.753Z,3.40
2022-11-02T21:32:23.268Z,4.53
2022-11-02T21:34:50.771Z,4.90
2022-11-02T21:37:18.338Z,4.10
2022-11-02T21:39:45.857Z,4.50
2022-11-02T21:42:13.337Z,4.13
2022-11-02T21:44:40.873Z,5.22
2022-11-02T21:47:09.449Z,5.35
2022-11-02T21:49:36.917Z,6.40
2022-11-02T21:52:04.463Z,4.65
2022-11-02T21:54:31.954Z,5.70
2022-11-02T21:56:59.866Z,4.50
2022-11-02T21:59:27.377Z,6.72
2022-11-02T22:01:55.084Z,5.78
2022-11-02T22:04:29.741Z,5.85
2022-11-02T22:06:57.567Z,4.32
2022-11-02T22:09:26.392Z,4.93
2022-11-02T22:12:12.362Z,5.00
2022-11-02T22:14:40.354Z,4.68
2022-11-02T22:17:16.577Z,4.63
2022-11-02T22:19:56.181Z,5.80
2022-11-02T22:22:24.622Z,4.15
2022-11-02T22:24:52.169Z,4.47
2022-11-02T22:27:19.746Z,5.07
2022-11-02T22:29:47.297Z,5.20
2022-11-02T22:32:15.337Z,4.25
2022-11-02T22:34:44.532Z,6.45
2022-11-02T22:37:30.378Z,5.10
2022-11-02T22:39:57.941Z,6.30
2022-11-02T22:42:25.723Z,5.80
2022-11-02T22:44:55.913Z,4.78
2022-11-02T22:47:23.692Z,6.13
2022-11-02T22:49:51.392Z,5.65
2022-11-02T22:52:20.264Z,7.10
2022-11-02T22:54:48.489Z,7.10
2022-11-02T22:57:16.032Z,6.30
2022-11-02T22:59:43.549Z,6.80
2022-11-02T23:02:11.158Z,6.55
2022-11-02T23:04:38.792Z,5.45
2022-11-02T23:07:06.963Z,5.85
2022-11-02T23:09:34.438Z,7.68
2022-11-02T23:12:02.028Z,7.20
2022-11-02T23:14:30.565Z,6.47
2022-11-02T23:16:59.393Z,7.45
2022-11-02T23:19:28.333Z,7.28
2022-11-02T23:22:16.228Z,6.15
2022-11-02T23:25:03.163Z,5.38
2022-11-02T23:27:31.703Z,8.82
2022-11-02T23:30:17.531Z,8.07
2022-11-02T23:32:45.148Z,7.75
2022-11-02T23:35:31.440Z,7.00
2022-11-02T23:38:03.278Z,7.07
2022-11-02T23:40:31.174Z,8.05
2022-11-02T23:42:58.883Z,8.05
2022-11-02T23:45:26.482Z,6.68
2022-11-02T23:48:02.987Z,7.32
2022-11-02T23:50:50.411Z,8.82
2022-11-02T23:53:39.558Z,7.63
2022-11-02T23:56:26.644Z,8.35
2022-11-02T23:59:06.938Z,8.85
